This is the latest recevied weather packets stored in our database for station/object SR2GKG-13. If no packets are shown the sender has not sent any weather packets the latest 10 day(s).
| Time | Temp. | Humidity | Pressure | Rain* | Wind** | Luminosity | Snow |
|---|---|---|---|---|---|---|---|
| 1777891159 | 23.89° C | 36% | 1000.1 hPa | - | - | - | - |
| 1777890258 | 24.44° C | 36% | 1000.2 hPa | - | - | - | - |
| 1777889358 | 25.56° C | 33% | 1000.4 hPa | - | - | - | - |
| 1777888458 | 25° C | 34% | 1000.3 hPa | - | - | - | - |
| 1777887558 | 25° C | 34% | 1000.2 hPa | - | - | - | - |
| 1777886658 | 25.56° C | 32% | 1000 hPa | - | - | - | - |
| 1777885758 | 25.56° C | 32% | 1000 hPa | - | - | - | - |
| 1777884858 | 23.89° C | 35% | 999.8 hPa | - | - | - | - |
| 1777883958 | 23.89° C | 35% | 1000.1 hPa | - | - | - | - |
| 1777883058 | 23.89° C | 34% | 1000 hPa | - | - | - | - |
| 1777882158 | 25° C | 33% | 999.9 hPa | - | - | - | - |
| 1777881258 | 26.11° C | 31% | 1000 hPa | - | - | - | - |
| 1777880357 | 22.22° C | 36% | 999.9 hPa | - | - | - | - |
| 1777879457 | 22.22° C | 37% | 999.9 hPa | - | - | - | - |
| 1777878557 | 23.33° C | 34% | 999.5 hPa | - | - | - | - |
| 1777877657 | 22.78° C | 35% | 999.5 hPa | - | - | - | - |
| 1777876757 | 21.11° C | 38% | 999.6 hPa | - | - | - | - |
| 1777875857 | 21.11° C | 38% | 999.5 hPa | - | - | - | - |
| 1777874957 | 21.11° C | 38% | 999.4 hPa | - | - | - | - |
| 1777874057 | 22.78° C | 34% | 999.2 hPa | - | - | - | - |
| 1777873157 | 19.44° C | 42% | 999.3 hPa | - | - | - | - |
| 1777872257 | 17.22° C | 46% | 999.3 hPa | - | - | - | - |
| 1777871356 | 16.11° C | 49% | 999.1 hPa | - | - | - | - |
| 1777870456 | 14.44° C | 52% | 999.3 hPa | - | - | - | - |
| 1777869556 | 14.44° C | 53% | 999.1 hPa | - | - | - | - |
* Rain since midnight (hover to see other rain measurements)
** Current wind speed in m/s (hover to see current wind gust speed)